sensor_id;sensor_type;location;lat;lon;timestamp;pressure;altitude;pressure_sealevel;temperature;humidity
49216;BME280;45943;53.148;8.204;2023-05-29T00:00:17;102467.31;;;17.29;91.71
49216;BME280;45943;53.148;8.204;2023-05-29T00:02:44;102477.09;;;17.20;92.63
49216;BME280;45943;53.148;8.204;2023-05-29T00:05:10;102476.75;;;17.13;93.77
49216;BME280;45943;53.148;8.204;2023-05-29T00:07:38;102473.66;;;17.07;93.51
49216;BME280;45943;53.148;8.204;2023-05-29T00:10:08;102473.19;;;17.02;94.01
49216;BME280;45943;53.148;8.204;2023-05-29T00:12:36;102475.28;;;16.98;95.79
49216;BME280;45943;53.148;8.204;2023-05-29T00:15:03;102479.22;;;17.05;94.44
49216;BME280;45943;53.148;8.204;2023-05-29T00:17:30;102471.69;;;17.09;93.27
49216;BME280;45943;53.148;8.204;2023-05-29T00:20:01;102482.66;;;17.07;93.75
49216;BME280;45943;53.148;8.204;2023-05-29T00:22:31;102480.22;;;17.04;93.88
49216;BME280;45943;53.148;8.204;2023-05-29T00:24:57;102483.81;;;16.94;94.28
49216;BME280;45943;53.148;8.204;2023-05-29T00:27:23;102478.00;;;16.87;96.34
49216;BME280;45943;53.148;8.204;2023-05-29T00:29:49;102477.66;;;16.91;96.60
49216;BME280;45943;53.148;8.204;2023-05-29T00:32:15;102485.88;;;16.90;97.33
49216;BME280;45943;53.148;8.204;2023-05-29T00:34:41;102486.88;;;16.89;97.43
49216;BME280;45943;53.148;8.204;2023-05-29T00:37:07;102491.94;;;16.94;96.52
49216;BME280;45943;53.148;8.204;2023-05-29T00:39:33;102491.69;;;16.97;95.07
49216;BME280;45943;53.148;8.204;2023-05-29T00:41:59;102487.50;;;16.92;95.19
49216;BME280;45943;53.148;8.204;2023-05-29T00:44:25;102489.84;;;16.86;96.91
49216;BME280;45943;53.148;8.204;2023-05-29T00:46:52;102493.16;;;16.78;95.23
49216;BME280;45943;53.148;8.204;2023-05-29T00:49:19;102493.13;;;16.67;97.96
49216;BME280;45943;53.148;8.204;2023-05-29T00:51:47;102494.63;;;16.71;98.43
49216;BME280;45943;53.148;8.204;2023-05-29T00:54:17;102489.22;;;16.71;97.11
49216;BME280;45943;53.148;8.204;2023-05-29T00:56:47;102496.22;;;16.62;97.50
49216;BME280;45943;53.148;8.204;2023-05-29T00:59:13;102491.03;;;16.59;99.74
49216;BME280;45943;53.148;8.204;2023-05-29T01:01:40;102490.91;;;16.61;97.98
49216;BME280;45943;53.148;8.204;2023-05-29T01:04:08;102490.03;;;16.60;96.93
49216;BME280;45943;53.148;8.204;2023-05-29T01:06:38;102491.16;;;16.58;94.79
49216;BME280;45943;53.148;8.204;2023-05-29T01:09:05;102499.28;;;16.58;97.07
49216;BME280;45943;53.148;8.204;2023-05-29T01:11:31;102491.66;;;16.63;94.51
49216;BME280;45943;53.148;8.204;2023-05-29T01:14:17;102499.53;;;16.66;93.38
49216;BME280;45943;53.148;8.204;2023-05-29T01:16:55;102501.69;;;16.74;92.57
49216;BME280;45943;53.148;8.204;2023-05-29T01:25:23;102503.97;;;16.67;94.05
49216;BME280;45943;53.148;8.204;2023-05-29T01:28:00;102496.84;;;16.66;94.55
49216;BME280;45943;53.148;8.204;2023-05-29T01:30:30;102489.06;;;16.61;94.17
49216;BME280;45943;53.148;8.204;2023-05-29T01:32:58;102487.84;;;16.54;94.66
49216;BME280;45943;53.148;8.204;2023-05-29T01:35:25;102486.47;;;16.49;96.00
49216;BME280;45943;53.148;8.204;2023-05-29T01:37:51;102492.00;;;16.47;95.95
49216;BME280;45943;53.148;8.204;2023-05-29T01:40:17;102486.84;;;16.44;96.25
49216;BME280;45943;53.148;8.204;2023-05-29T01:42:43;102498.53;;;16.45;97.31
49216;BME280;45943;53.148;8.204;2023-05-29T01:45:09;102495.09;;;16.43;97.69
49216;BME280;45943;53.148;8.204;2023-05-29T01:47:37;102494.34;;;16.41;98.20
49216;BME280;45943;53.148;8.204;2023-05-29T01:50:04;102498.91;;;16.40;nan
49216;BME280;45943;53.148;8.204;2023-05-29T01:52:31;102497.03;;;16.41;99.07
49216;BME280;45943;53.148;8.204;2023-05-29T01:54:57;102499.41;;;16.45;98.78
49216;BME280;45943;53.148;8.204;2023-05-29T01:57:23;102508.13;;;16.38;98.95
49216;BME280;45943;53.148;8.204;2023-05-29T01:59:51;102512.06;;;16.22;100.00
49216;BME280;45943;53.148;8.204;2023-05-29T02:02:17;102516.81;;;16.19;100.00
49216;BME280;45943;53.148;8.204;2023-05-29T02:04:43;102508.25;;;16.25;100.00
49216;BME280;45943;53.148;8.204;2023-05-29T02:07:09;102505.28;;;16.28;100.00
49216;BME280;45943;53.148;8.204;2023-05-29T02:09:37;102510.09;;;16.24;100.00
49216;BME280;45943;53.148;8.204;2023-05-29T02:12:04;102511.44;;;16.30;100.00
49216;BME280;45943;53.148;8.204;2023-05-29T02:14:30;102508.13;;;16.26;100.00
49216;BME280;45943;53.148;8.204;2023-05-29T02:16:57;102512.94;;;16.34;100.00
49216;BME280;45943;53.148;8.204;2023-05-29T02:19:23;102517.38;;;16.35;100.00
49216;BME280;45943;53.148;8.204;2023-05-29T02:21:51;102515.66;;;16.34;100.00
49216;BME280;45943;53.148;8.204;2023-05-29T02:24:16;102513.78;;;16.34;100.00
49216;BME280;45943;53.148;8.204;2023-05-29T02:26:42;102508.84;;;16.28;100.00
49216;BME280;45943;53.148;8.204;2023-05-29T02:29:08;102514.75;;;16.22;100.00
49216;BME280;45943;53.148;8.204;2023-05-29T02:31:36;102512.88;;;16.12;100.00
49216;BME280;45943;53.148;8.204;2023-05-29T02:34:02;102512.78;;;16.13;100.00
49216;BME280;45943;53.148;8.204;2023-05-29T02:36:28;102517.94;;;16.16;100.00
49216;BME280;45943;53.148;8.204;2023-05-29T02:38:54;102516.34;;;16.14;100.00
49216;BME280;45943;53.148;8.204;2023-05-29T02:41:20;102519.63;;;16.06;100.00
49216;BME280;45943;53.148;8.204;2023-05-29T02:43:46;102513.94;;;15.98;100.00
49216;BME280;45943;53.148;8.204;2023-05-29T02:46:12;102518.25;;;16.00;100.00
49216;BME280;45943;53.148;8.204;2023-05-29T02:48:38;102509.78;;;16.05;100.00
49216;BME280;45943;53.148;8.204;2023-05-29T02:51:04;102512.72;;;16.02;100.00
49216;BME280;45943;53.148;8.204;2023-05-29T02:53:30;102515.38;;;15.91;100.00
49216;BME280;45943;53.148;8.204;2023-05-29T02:55:56;102514.34;;;15.81;100.00
49216;BME280;45943;53.148;8.204;2023-05-29T02:58:22;102514.16;;;15.84;100.00
49216;BME280;45943;53.148;8.204;2023-05-29T03:00:48;102513.53;;;15.91;100.00
49216;BME280;45943;53.148;8.204;2023-05-29T03:03:15;102514.31;;;15.93;100.00
49216;BME280;45943;53.148;8.204;2023-05-29T03:05:41;102515.50;;;15.89;100.00
49216;BME280;45943;53.148;8.204;2023-05-29T03:08:07;102514.16;;;15.84;100.00
49216;BME280;45943;53.148;8.204;2023-05-29T03:10:33;102515.22;;;15.81;100.00
49216;BME280;45943;53.148;8.204;2023-05-29T03:12:59;102517.06;;;15.81;100.00
49216;BME280;45943;53.148;8.204;2023-05-29T03:15:25;102510.44;;;15.85;100.00
49216;BME280;45943;53.148;8.204;2023-05-29T03:17:51;102508.94;;;15.81;100.00
49216;BME280;45943;53.148;8.204;2023-05-29T03:20:17;102510.44;;;15.85;100.00
49216;BME280;45943;53.148;8.204;2023-05-29T03:22:43;102509.69;;;15.83;100.00
49216;BME280;45943;53.148;8.204;2023-05-29T03:25:10;102508.09;;;15.80;100.00
49216;BME280;45943;53.148;8.204;2023-05-29T03:27:36;102511.38;;;15.72;100.00
49216;BME280;45943;53.148;8.204;2023-05-29T03:30:02;102508.78;;;15.71;100.00
49216;BME280;45943;53.148;8.204;2023-05-29T03:32:28;102510.88;;;15.67;100.00
49216;BME280;45943;53.148;8.204;2023-05-29T03:34:54;102511.53;;;15.58;100.00
49216;BME280;45943;53.148;8.204;2023-05-29T03:37:21;102506.97;;;15.59;100.00
49216;BME280;45943;53.148;8.204;2023-05-29T03:39:47;102514.66;;;15.65;100.00
49216;BME280;45943;53.148;8.204;2023-05-29T03:42:13;102519.22;;;15.64;100.00
49216;BME280;45943;53.148;8.204;2023-05-29T03:44:41;102525.50;;;15.65;100.00
49216;BME280;45943;53.148;8.204;2023-05-29T03:47:07;102522.78;;;15.65;100.00
49216;BME280;45943;53.148;8.204;2023-05-29T03:49:34;102520.94;;;15.65;100.00
49216;BME280;45943;53.148;8.204;2023-05-29T03:52:00;102523.00;;;15.62;100.00
49216;BME280;45943;53.148;8.204;2023-05-29T03:54:26;102525.50;;;15.65;100.00
49216;BME280;45943;53.148;8.204;2023-05-29T03:56:52;102538.78;;;15.68;100.00
49216;BME280;45943;53.148;8.204;2023-05-29T03:59:18;102544.81;;;15.71;100.00
49216;BME280;45943;53.148;8.204;2023-05-29T04:01:44;102535.63;;;15.74;100.00
49216;BME280;45943;53.148;8.204;2023-05-29T04:04:10;102528.75;;;15.81;100.00
49216;BME280;45943;53.148;8.204;2023-05-29T04:06:36;102537.50;;;15.85;100.00
49216;BME280;45943;53.148;8.204;2023-05-29T04:09:05;102542.41;;;15.80;100.00
49216;BME280;45943;53.148;8.204;2023-05-29T04:11:34;102543.91;;;15.84;100.00
49216;BME280;45943;53.148;8.204;2023-05-29T04:14:00;102538.75;;;15.92;100.00
49216;BME280;45943;53.148;8.204;2023-05-29T04:16:27;102540.16;;;15.97;100.00
49216;BME280;45943;53.148;8.204;2023-05-29T04:18:54;102539.28;;;15.97;100.00
49216;BME280;45943;53.148;8.204;2023-05-29T04:21:20;102546.38;;;15.87;100.00
49216;BME280;45943;53.148;8.204;2023-05-29T04:23:46;102549.53;;;15.81;100.00
49216;BME280;45943;53.148;8.204;2023-05-29T04:26:12;102553.28;;;15.91;100.00
49216;BME280;45943;53.148;8.204;2023-05-29T04:28:39;102545.16;;;15.91;100.00
49216;BME280;45943;53.148;8.204;2023-05-29T04:31:05;102545.50;;;15.86;100.00
49216;BME280;45943;53.148;8.204;2023-05-29T04:33:31;102552.78;;;15.86;100.00
49216;BME280;45943;53.148;8.204;2023-05-29T04:35:57;102549.81;;;15.89;100.00
49216;BME280;45943;53.148;8.204;2023-05-29T04:38:26;102556.75;;;15.93;100.00
49216;BME280;45943;53.148;8.204;2023-05-29T04:40:52;102556.53;;;16.07;100.00
49216;BME280;45943;53.148;8.204;2023-05-29T04:43:23;102555.47;;;16.21;100.00
49216;BME280;45943;53.148;8.204;2023-05-29T04:45:52;102563.00;;;16.28;97.79
49216;BME280;45943;53.148;8.204;2023-05-29T04:48:19;102560.19;;;16.30;99.31
49216;BME280;45943;53.148;8.204;2023-05-29T04:50:45;102559.09;;;16.32;98.83
49216;BME280;45943;53.148;8.204;2023-05-29T04:53:11;102569.16;;;16.30;99.50
49216;BME280;45943;53.148;8.204;2023-05-29T04:55:37;102569.94;;;16.32;98.99
49216;BME280;45943;53.148;8.204;2023-05-29T04:58:03;102575.34;;;16.32;99.14
49216;BME280;45943;53.148;8.204;2023-05-29T05:00:29;102582.13;;;16.38;98.86
49216;BME280;45943;53.148;8.204;2023-05-29T05:02:55;102585.09;;;16.46;98.89
49216;BME280;45943;53.148;8.204;2023-05-29T05:05:21;102594.63;;;16.52;97.60
49216;BME280;45943;53.148;8.204;2023-05-29T05:07:47;102586.47;;;16.52;96.26
49216;BME280;45943;53.148;8.204;2023-05-29T05:10:13;102594.09;;;16.47;97.69
49216;BME280;45943;53.148;8.204;2023-05-29T05:12:39;102598.97;;;16.42;98.02
49216;BME280;45943;53.148;8.204;2023-05-29T05:15:05;102592.81;;;16.40;99.95
49216;BME280;45943;53.148;8.204;2023-05-29T05:17:32;102589.91;;;16.43;99.97
49216;BME280;45943;53.148;8.204;2023-05-29T05:19:58;102587.06;;;16.44;100.00
49216;BME280;45943;53.148;8.204;2023-05-29T05:22:24;102576.97;;;16.46;100.00
49216;BME280;45943;53.148;8.204;2023-05-29T05:24:50;102573.41;;;16.46;99.23
49216;BME280;45943;53.148;8.204;2023-05-29T05:27:18;102578.81;;;16.46;99.13
49216;BME280;45943;53.148;8.204;2023-05-29T05:29:44;102567.63;;;16.50;99.09
49216;BME280;45943;53.148;8.204;2023-05-29T05:32:10;102563.44;;;16.57;97.54
49216;BME280;45943;53.148;8.204;2023-05-29T05:34:36;102566.75;;;16.61;96.98
49216;BME280;45943;53.148;8.204;2023-05-29T05:37:02;102562.63;;;16.68;95.64
49216;BME280;45943;53.148;8.204;2023-05-29T05:39:28;102563.28;;;16.72;94.55
49216;BME280;45943;53.148;8.204;2023-05-29T05:41:55;102566.94;;;16.71;94.13
49216;BME280;45943;53.148;8.204;2023-05-29T05:44:21;102562.28;;;16.73;96.24
49216;BME280;45943;53.148;8.204;2023-05-29T05:46:47;102572.25;;;16.72;94.56
49216;BME280;45943;53.148;8.204;2023-05-29T05:49:13;102571.16;;;16.75;94.04
49216;BME280;45943;53.148;8.204;2023-05-29T05:51:39;102571.88;;;16.77;94.29
49216;BME280;45943;53.148;8.204;2023-05-29T05:54:05;102576.69;;;16.84;93.53
49216;BME280;45943;53.148;8.204;2023-05-29T05:56:31;102570.91;;;16.89;95.53
49216;BME280;45943;53.148;8.204;2023-05-29T05:58:57;102573.13;;;16.95;93.91
49216;BME280;45943;53.148;8.204;2023-05-29T06:01:23;102579.41;;;16.96;91.73
49216;BME280;45943;53.148;8.204;2023-05-29T06:03:49;102575.59;;;16.98;92.99
49216;BME280;45943;53.148;8.204;2023-05-29T06:06:15;102582.84;;;17.09;91.61
49216;BME280;45943;53.148;8.204;2023-05-29T06:08:42;102575.38;;;17.12;90.66
49216;BME280;45943;53.148;8.204;2023-05-29T06:11:09;102575.69;;;17.19;90.04
49216;BME280;45943;53.148;8.204;2023-05-29T06:13:35;102575.47;;;17.22;88.10
49216;BME280;45943;53.148;8.204;2023-05-29T06:16:01;102582.13;;;17.18;92.56
49216;BME280;45943;53.148;8.204;2023-05-29T06:18:27;102590.50;;;17.15;93.35
49216;BME280;45943;53.148;8.204;2023-05-29T06:20:53;102603.69;;;17.08;89.00
49216;BME280;45943;53.148;8.204;2023-05-29T06:23:19;102598.88;;;17.01;87.17
49216;BME280;45943;53.148;8.204;2023-05-29T06:25:45;102597.28;;;17.09;89.32
49216;BME280;45943;53.148;8.204;2023-05-29T06:28:11;102601.34;;;17.15;81.88
49216;BME280;45943;53.148;8.204;2023-05-29T06:30:38;102605.41;;;17.20;79.91
49216;BME280;45943;53.148;8.204;2023-05-29T06:33:05;102599.63;;;17.25;80.48
49216;BME280;45943;53.148;8.204;2023-05-29T06:35:31;102595.91;;;17.37;80.47
49216;BME280;45943;53.148;8.204;2023-05-29T06:37:57;102602.59;;;17.33;80.59
49216;BME280;45943;53.148;8.204;2023-05-29T06:40:23;102602.59;;;17.33;78.44
49216;BME280;45943;53.148;8.204;2023-05-29T06:42:49;102605.66;;;17.29;78.13
49216;BME280;45943;53.148;8.204;2023-05-29T06:45:15;102605.91;;;17.37;78.02
49216;BME280;45943;53.148;8.204;2023-05-29T06:47:41;102619.84;;;17.43;76.36
49216;BME280;45943;53.148;8.204;2023-05-29T06:50:08;102613.78;;;17.51;75.76
49216;BME280;45943;53.148;8.204;2023-05-29T06:52:34;102605.00;;;17.59;78.13
49216;BME280;45943;53.148;8.204;2023-05-29T06:55:00;102607.84;;;17.57;74.73
49216;BME280;45943;53.148;8.204;2023-05-29T06:57:27;102602.94;;;17.51;74.98
49216;BME280;45943;53.148;8.204;2023-05-29T06:59:53;102605.75;;;17.49;75.96
49216;BME280;45943;53.148;8.204;2023-05-29T07:02:19;102612.91;;;17.62;73.00
49216;BME280;45943;53.148;8.204;2023-05-29T07:04:45;102618.94;;;17.65;71.21
49216;BME280;45943;53.148;8.204;2023-05-29T07:07:11;102617.34;;;17.74;71.19
49216;BME280;45943;53.148;8.204;2023-05-29T07:09:37;102612.53;;;17.77;69.76
49216;BME280;45943;53.148;8.204;2023-05-29T07:12:05;102614.38;;;17.77;71.72
49216;BME280;45943;53.148;8.204;2023-05-29T07:14:31;102617.19;;;17.87;70.96
49216;BME280;45943;53.148;8.204;2023-05-29T07:16:57;102619.66;;;17.90;72.29
49216;BME280;45943;53.148;8.204;2023-05-29T07:19:23;102619.50;;;18.02;100.00
49216;BME280;45943;53.148;8.204;2023-05-29T07:21:49;102620.00;;;18.28;81.97
49216;BME280;45943;53.148;8.204;2023-05-29T07:24:15;102611.53;;;18.43;83.00
49216;BME280;45943;53.148;8.204;2023-05-29T07:26:41;102618.69;;;18.44;81.14
49216;BME280;45943;53.148;8.204;2023-05-29T07:29:07;102633.88;;;18.46;85.05
49216;BME280;45943;53.148;8.204;2023-05-29T07:31:33;102626.00;;;18.64;86.15
49216;BME280;45943;53.148;8.204;2023-05-29T07:33:59;102617.22;;;18.72;82.75
49216;BME280;45943;53.148;8.204;2023-05-29T07:36:28;102628.72;;;18.85;83.88
49216;BME280;45943;53.148;8.204;2023-05-29T07:38:55;102632.13;;;18.98;84.09
49216;BME280;45943;53.148;8.204;2023-05-29T07:41:23;102623.97;;;18.98;80.25
49216;BME280;45943;53.148;8.204;2023-05-29T07:43:49;102633.59;;;19.12;76.52
49216;BME280;45943;53.148;8.204;2023-05-29T07:46:20;102632.16;;;19.08;68.00
49216;BME280;45943;53.148;8.204;2023-05-29T07:48:46;102628.66;;;18.96;72.15
49216;BME280;45943;53.148;8.204;2023-05-29T07:51:12;102632.84;;;19.00;67.83
49216;BME280;45943;53.148;8.204;2023-05-29T07:53:38;102635.69;;;18.99;71.87
49216;BME280;45943;53.148;8.204;2023-05-29T07:56:04;102638.09;;;18.92;66.70
49216;BME280;45943;53.148;8.204;2023-05-29T07:58:30;102633.16;;;18.86;68.68
49216;BME280;45943;53.148;8.204;2023-05-29T08:00:57;102628.16;;;18.81;69.11
49216;BME280;45943;53.148;8.204;2023-05-29T08:03:23;102625.44;;;18.81;72.67
49216;BME280;45943;53.148;8.204;2023-05-29T08:05:49;102624.28;;;18.84;72.22
49216;BME280;45943;53.148;8.204;2023-05-29T08:08:15;102628.53;;;18.77;68.82
49216;BME280;45943;53.148;8.204;2023-05-29T08:10:41;102630.44;;;18.86;69.76
49216;BME280;45943;53.148;8.204;2023-05-29T08:13:07;102641.13;;;18.99;70.10
49216;BME280;45943;53.148;8.204;2023-05-29T08:15:33;102628.84;;;19.04;67.05
49216;BME280;45943;53.148;8.204;2023-05-29T08:18:00;102631.28;;;19.07;70.46
49216;BME280;45943;53.148;8.204;2023-05-29T08:20:26;102636.13;;;19.04;65.16
49216;BME280;45943;53.148;8.204;2023-05-29T08:22:52;102640.72;;;19.03;68.04
49216;BME280;45943;53.148;8.204;2023-05-29T08:25:18;102645.63;;;19.09;69.22
49216;BME280;45943;53.148;8.204;2023-05-29T08:27:44;102641.63;;;19.13;68.81
49216;BME280;45943;53.148;8.204;2023-05-29T08:30:10;102637.53;;;19.19;66.40
49216;BME280;45943;53.148;8.204;2023-05-29T08:32:37;102649.16;;;19.00;66.09
49216;BME280;45943;53.148;8.204;2023-05-29T08:35:03;102644.88;;;19.07;69.80
49216;BME280;45943;53.148;8.204;2023-05-29T08:37:30;102636.03;;;19.15;66.49
49216;BME280;45943;53.148;8.204;2023-05-29T08:39:56;102646.13;;;19.24;66.74
49216;BME280;45943;53.148;8.204;2023-05-29T08:42:32;102650.47;;;19.36;67.30
49216;BME280;45943;53.148;8.204;2023-05-29T08:48:02;102653.94;;;19.38;63.42
49216;BME280;45943;53.148;8.204;2023-05-29T08:50:29;102657.88;;;19.25;61.70
49216;BME280;45943;53.148;8.204;2023-05-29T08:53:00;102655.59;;;19.30;63.85
49216;BME280;45943;53.148;8.204;2023-05-29T08:55:26;102652.28;;;19.26;62.82
49216;BME280;45943;53.148;8.204;2023-05-29T08:57:52;102660.00;;;19.21;64.52
49216;BME280;45943;53.148;8.204;2023-05-29T09:00:18;102667.53;;;19.08;63.43
49216;BME280;45943;53.148;8.204;2023-05-29T09:02:45;102654.09;;;19.16;64.37
49216;BME280;45943;53.148;8.204;2023-05-29T09:05:11;102645.97;;;19.26;64.00
49216;BME280;45943;53.148;8.204;2023-05-29T09:07:38;102648.19;;;19.41;62.55
49216;BME280;45943;53.148;8.204;2023-05-29T09:10:08;102646.81;;;19.47;62.10
49216;BME280;45943;53.148;8.204;2023-05-29T09:12:35;102651.25;;;19.48;61.46
49216;BME280;45943;53.148;8.204;2023-05-29T09:15:01;102646.88;;;19.57;61.72
49216;BME280;45943;53.148;8.204;2023-05-29T09:17:31;102642.00;;;19.60;60.71
49216;BME280;45943;53.148;8.204;2023-05-29T09:19:58;102646.78;;;19.77;61.49
49216;BME280;45943;53.148;8.204;2023-05-29T09:22:25;102647.81;;;19.86;60.44
49216;BME280;45943;53.148;8.204;2023-05-29T09:24:51;102648.06;;;19.83;60.53
49216;BME280;45943;53.148;8.204;2023-05-29T09:27:18;102640.63;;;19.85;60.49
49216;BME280;45943;53.148;8.204;2023-05-29T09:29:45;102649.09;;;19.92;61.83
49216;BME280;45943;53.148;8.204;2023-05-29T09:32:12;102647.38;;;20.00;59.93
49216;BME280;45943;53.148;8.204;2023-05-29T09:34:41;102639.78;;;20.04;59.28
49216;BME280;45943;53.148;8.204;2023-05-29T09:37:08;102638.66;;;20.07;58.63
49216;BME280;45943;53.148;8.204;2023-05-29T09:42:12;102647.84;;;20.34;59.69
49216;BME280;45943;53.148;8.204;2023-05-29T09:44:40;102646.97;;;20.34;57.10
49216;BME280;45943;53.148;8.204;2023-05-29T09:47:06;102646.13;;;20.33;57.91
49216;BME280;45943;53.148;8.204;2023-05-29T09:49:33;102653.91;;;20.48;59.08
49216;BME280;45943;53.148;8.204;2023-05-29T09:51:59;102649.47;;;20.56;57.87
49216;BME280;45943;53.148;8.204;2023-05-29T09:54:27;102644.28;;;20.44;57.25
49216;BME280;45943;53.148;8.204;2023-05-29T09:56:57;102655.78;;;20.57;57.76
49216;BME280;45943;53.148;8.204;2023-05-29T09:59:24;102648.59;;;20.66;58.54
49216;BME280;45943;53.148;8.204;2023-05-29T10:01:55;102646.69;;;20.85;62.30
49216;BME280;45943;53.148;8.204;2023-05-29T10:04:26;102638.84;;;21.10;61.22
49216;BME280;45943;53.148;8.204;2023-05-29T10:06:52;102641.53;;;21.29;60.86
49216;BME280;45943;53.148;8.204;2023-05-29T10:09:22;102628.59;;;21.31;57.96
49216;BME280;45943;53.148;8.204;2023-05-29T10:11:51;102632.34;;;21.30;58.90
49216;BME280;45943;53.148;8.204;2023-05-29T10:14:23;102629.91;;;21.27;57.14
49216;BME280;45943;53.148;8.204;2023-05-29T10:16:51;102633.97;;;21.04;55.82
49216;BME280;45943;53.148;8.204;2023-05-29T10:19:24;102640.38;;;20.85;57.38
49216;BME280;45943;53.148;8.204;2023-05-29T10:21:53;102635.50;;;20.69;56.42
49216;BME280;45943;53.148;8.204;2023-05-29T10:24:19;102641.13;;;20.58;58.46
49216;BME280;45943;53.148;8.204;2023-05-29T10:26:47;102627.91;;;20.63;56.85
49216;BME280;45943;53.148;8.204;2023-05-29T10:29:17;102637.22;;;20.80;59.46
49216;BME280;45943;53.148;8.204;2023-05-29T10:31:59;102637.44;;;21.06;58.55
49216;BME280;45943;53.148;8.204;2023-05-29T10:34:39;102629.66;;;21.11;57.55
49216;BME280;45943;53.148;8.204;2023-05-29T10:37:29;102612.84;;;21.15;57.73
49216;BME280;45943;53.148;8.204;2023-05-29T10:40:22;102626.03;;;21.20;56.16
49216;BME280;45943;53.148;8.204;2023-05-29T10:42:50;102618.38;;;21.33;57.52
49216;BME280;45943;53.148;8.204;2023-05-29T10:50:37;102626.16;;;22.01;54.48
49216;BME280;45943;53.148;8.204;2023-05-29T10:53:07;102626.56;;;22.06;53.70
49216;BME280;45943;53.148;8.204;2023-05-29T10:55:39;102619.53;;;21.86;52.54
49216;BME280;45943;53.148;8.204;2023-05-29T11:00:44;102618.34;;;22.16;53.44
49216;BME280;45943;53.148;8.204;2023-05-29T11:03:21;102624.34;;;22.37;54.07
49216;BME280;45943;53.148;8.204;2023-05-29T11:14:04;102615.16;;;22.64;51.20
49216;BME280;45943;53.148;8.204;2023-05-29T11:18:58;102612.22;;;23.09;50.22
49216;BME280;45943;53.148;8.204;2023-05-29T11:24:25;102604.72;;;22.85;49.28
49216;BME280;45943;53.148;8.204;2023-05-29T11:26:53;102615.84;;;22.84;50.34
49216;BME280;45943;53.148;8.204;2023-05-29T11:29:21;102615.03;;;22.92;49.33
49216;BME280;45943;53.148;8.204;2023-05-29T11:32:04;102613.72;;;22.78;49.26
49216;BME280;45943;53.148;8.204;2023-05-29T11:34:31;102616.59;;;22.94;50.70
49216;BME280;45943;53.148;8.204;2023-05-29T11:36:59;102612.78;;;23.13;49.72
49216;BME280;45943;53.148;8.204;2023-05-29T11:39:28;102609.97;;;23.31;49.59
49216;BME280;45943;53.148;8.204;2023-05-29T11:41:56;102616.38;;;23.56;49.97
49216;BME280;45943;53.148;8.204;2023-05-29T11:44:25;102608.81;;;23.50;48.87
49216;BME280;45943;53.148;8.204;2023-05-29T11:47:05;102620.75;;;23.74;48.88
49216;BME280;45943;53.148;8.204;2023-05-29T11:49:33;102615.16;;;24.00;49.50
49216;BME280;45943;53.148;8.204;2023-05-29T11:52:07;102615.69;;;24.12;47.58
49216;BME280;45943;53.148;8.204;2023-05-29T11:54:37;102620.13;;;24.05;47.39
49216;BME280;45943;53.148;8.204;2023-05-29T11:57:03;102615.50;;;23.89;46.26
49216;BME280;45943;53.148;8.204;2023-05-29T11:59:32;102614.03;;;23.69;48.02
49216;BME280;45943;53.148;8.204;2023-05-29T12:01:59;102613.59;;;23.82;48.20
49216;BME280;45943;53.148;8.204;2023-05-29T12:04:28;102613.28;;;24.09;47.55
49216;BME280;45943;53.148;8.204;2023-05-29T12:06:54;102613.97;;;24.27;46.24
49216;BME280;45943;53.148;8.204;2023-05-29T12:09:24;102611.78;;;24.47;47.22
49216;BME280;45943;53.148;8.204;2023-05-29T12:12:03;102620.53;;;24.59;45.38
49216;BME280;45943;53.148;8.204;2023-05-29T12:14:30;102616.03;;;24.91;45.90
49216;BME280;45943;53.148;8.204;2023-05-29T12:16:56;102613.09;;;25.08;44.30
49216;BME280;45943;53.148;8.204;2023-05-29T12:19:22;102609.81;;;25.13;44.85
49216;BME280;45943;53.148;8.204;2023-05-29T12:21:48;102606.34;;;25.27;45.07
49216;BME280;45943;53.148;8.204;2023-05-29T12:24:14;102612.09;;;25.49;44.34
49216;BME280;45943;53.148;8.204;2023-05-29T12:26:41;102621.84;;;25.51;45.06
49216;BME280;45943;53.148;8.204;2023-05-29T12:29:07;102609.03;;;25.35;43.57
49216;BME280;45943;53.148;8.204;2023-05-29T12:31:33;102618.47;;;25.41;44.10
49216;BME280;45943;53.148;8.204;2023-05-29T12:34:00;102621.28;;;25.64;43.96
49216;BME280;45943;53.148;8.204;2023-05-29T12:36:27;102622.97;;;25.65;43.54
49216;BME280;45943;53.148;8.204;2023-05-29T12:38:53;102620.38;;;25.80;43.28
49216;BME280;45943;53.148;8.204;2023-05-29T12:41:23;102612.28;;;25.47;42.27
49216;BME280;45943;53.148;8.204;2023-05-29T12:43:56;102615.00;;;25.08;42.62
49216;BME280;45943;53.148;8.204;2023-05-29T12:46:25;102618.03;;;25.21;43.71
49216;BME280;45943;53.148;8.204;2023-05-29T12:48:55;102621.72;;;25.44;43.41
49216;BME280;45943;53.148;8.204;2023-05-29T12:51:22;102611.47;;;25.30;41.98
49216;BME280;45943;53.148;8.204;2023-05-29T12:53:49;102620.13;;;25.11;42.08
49216;BME280;45943;53.148;8.204;2023-05-29T12:56:15;102627.88;;;24.83;42.56
49216;BME280;45943;53.148;8.204;2023-05-29T12:58:41;102620.19;;;24.78;44.51
49216;BME280;45943;53.148;8.204;2023-05-29T13:01:12;102618.44;;;24.85;42.56
49216;BME280;45943;53.148;8.204;2023-05-29T13:03:39;102611.91;;;25.03;42.98
49216;BME280;45943;53.148;8.204;2023-05-29T13:06:05;102616.19;;;25.05;41.64
49216;BME280;45943;53.148;8.204;2023-05-29T13:08:32;102615.81;;;25.16;42.27
49216;BME280;45943;53.148;8.204;2023-05-29T13:10:59;102612.50;;;25.37;42.09
49216;BME280;45943;53.148;8.204;2023-05-29T13:13:25;102611.66;;;25.68;42.06
49216;BME280;45943;53.148;8.204;2023-05-29T13:15:51;102611.78;;;25.74;41.53
49216;BME280;45943;53.148;8.204;2023-05-29T13:18:17;102615.25;;;25.68;40.85
49216;BME280;45943;53.148;8.204;2023-05-29T13:20:43;102617.06;;;25.45;40.59